PWSweather.com
Personal Weather Stations
Station Observations
WD4JKH
Forsyth, GA 31029

Forsyth, GA 31029

Lat: 33.033225, Lon: -83.927995

Elevation: 709

Station Type: Davis Vantage VUE

High Low Average
Temperature 86.6°F30.3°C 66.4°F19.1°C 77.1°F25.1°C
Dew Point 66.0°F18.9°C 58.7°F14.8°C 63.1°F17.3°C
Winds 4.8 mph 7.7 kmh Calm Calm 2.0 mph ESE3.2 kmh ESE
Wind Gusts 10.0 mph16.1 kmh 1.0 mph1.6 kmh 5.0 mph8.0 kmh
Humidity 87% 40% 64%
Pressure 30.08 in1018.6 mb 29.95 in1014.2 mb -
Precipitation 0.00 in0.0 mm - -
Hour Temp Dew Point Humidity Winds Wind Gusts Pressure Precip Precip Rate Daily Precip Total
12:00 AM 76.4°F24.7°C 65.3°F18.5°C 68% 1.5 mph N2.4 kmh N 8.0 mph12.9 kmh 29.97 in1014.9 mb 0.00 in0.0 mm 0.00 in0.0 mm 0.00 in0.0 mm
12:05 AM 76.3°F24.6°C 65.2°F18.4°C 68% 2.2 mph NW3.5 kmh NW 8.0 mph12.9 kmh 29.97 in1014.9 mb 0.00 in0.0 mm 0.00 in0.0 mm 0.00 in0.0 mm
12:10 AM 76.3°F24.6°C 65.2°F18.4°C 68% 2.2 mph NW3.5 kmh NW 6.0 mph9.7 kmh 29.97 in1014.9 mb 0.00 in0.0 mm 0.00 in0.0 mm 0.00 in0.0 mm
12:15 AM 76.2°F24.6°C 65.1°F18.4°C 68% 2.2 mph NW3.5 kmh NW 6.0 mph9.7 kmh 29.97 in1014.9 mb 0.00 in0.0 mm 0.00 in0.0 mm 0.00 in0.0 mm
12:20 AM 76.1°F24.5°C 65.2°F18.4°C 69% 1.7 mph NNW2.7 kmh NNW 6.0 mph9.7 kmh 29.97 in1014.9 mb 0.00 in0.0 mm 0.00 in0.0 mm 0.00 in0.0 mm
12:25 AM 76.1°F24.5°C 65.2°F18.4°C 69% 2.2 mph NW3.5 kmh NW 6.0 mph9.7 kmh 29.97 in1014.9 mb 0.00 in0.0 mm 0.00 in0.0 mm 0.00 in0.0 mm
12:30 AM 76.1°F24.5°C 64.8°F18.2°C 68% 2.7 mph NW4.3 kmh NW 7.0 mph11.3 kmh 29.96 in1014.6 mb 0.00 in0.0 mm 0.00 in0.0 mm 0.00 in0.0 mm
12:35 AM 76.1°F24.5°C 64.8°F18.2°C 68% 3.0 mph NW4.8 kmh NW 7.0 mph11.3 kmh 29.97 in1014.9 mb 0.00 in0.0 mm 0.00 in0.0 mm 0.00 in0.0 mm
12:40 AM 75.9°F24.4°C 64.8°F18.2°C 68% 2.8 mph NNW4.5 kmh NNW 9.0 mph14.5 kmh 29.97 in1014.9 mb 0.00 in0.0 mm 0.00 in0.0 mm 0.00 in0.0 mm
12:45 AM 75.7°F24.3°C 65.0°F18.3°C 69% 3.2 mph N5.1 kmh N 9.0 mph14.5 kmh 29.97 in1014.9 mb 0.00 in0.0 mm 0.00 in0.0 mm 0.00 in0.0 mm
12:50 AM 75.5°F24.2°C 64.8°F18.2°C 69% 1.6 mph NNW2.6 kmh NNW 9.0 mph14.5 kmh 29.97 in1014.9 mb 0.00 in0.0 mm 0.00 in0.0 mm 0.00 in0.0 mm
12:55 AM 75.3°F24.1°C 64.6°F18.1°C 69% 1.4 mph NW2.3 kmh NW 9.0 mph14.5 kmh 29.97 in1014.9 mb 0.00 in0.0 mm 0.00 in0.0 mm 0.00 in0.0 mm
01:00 AM 75.1°F23.9°C 64.4°F18.0°C 69% 2.3 mph NNW3.7 kmh NNW 7.0 mph11.3 kmh 29.97 in1014.9 mb 0.00 in0.0 mm 0.00 in0.0 mm 0.00 in0.0 mm
01:05 AM 74.9°F23.8°C 64.7°F18.2°C 70% 1.5 mph NW2.4 kmh NW 6.0 mph9.7 kmh 29.97 in1014.9 mb 0.00 in0.0 mm 0.00 in0.0 mm 0.00 in0.0 mm
01:10 AM 74.7°F23.7°C 64.5°F18.1°C 70% 1.5 mph NNW2.4 kmh NNW 6.0 mph9.7 kmh 29.96 in1014.6 mb 0.00 in0.0 mm 0.00 in0.0 mm 0.00 in0.0 mm
01:15 AM 74.5°F23.6°C 64.5°F18.1°C 71% 1.4 mph NNW2.3 kmh NNW 6.0 mph9.7 kmh 29.97 in1014.9 mb 0.00 in0.0 mm 0.00 in0.0 mm 0.00 in0.0 mm
01:20 AM 74.2°F23.4°C 64.2°F17.9°C 71% 1.7 mph NNW2.7 kmh NNW 6.0 mph9.7 kmh 29.96 in1014.6 mb 0.00 in0.0 mm 0.00 in0.0 mm 0.00 in0.0 mm
01:25 AM 74.1°F23.4°C 64.1°F17.8°C 71% 2.7 mph NW4.3 kmh NW 6.0 mph9.7 kmh 29.96 in1014.6 mb 0.00 in0.0 mm 0.00 in0.0 mm 0.00 in0.0 mm
01:29 AM 73.9°F23.3°C 64.1°F17.8°C 71% 1.2 mph NW1.9 kmh NW 4.0 mph6.4 kmh 29.96 in1014.6 mb 0.00 in0.0 mm 0.00 in0.0 mm 0.00 in0.0 mm
01:34 AM 73.6°F23.1°C 64.2°F17.9°C 72% Calm Calm 4.0 mph6.4 kmh 29.96 in1014.6 mb 0.00 in0.0 mm 0.00 in0.0 mm 0.00 in0.0 mm
01:39 AM 73.3°F22.9°C 63.9°F17.7°C 72% 1.0 mph NNE1.6 kmh NNE 4.0 mph6.4 kmh 29.96 in1014.6 mb 0.00 in0.0 mm 0.00 in0.0 mm 0.00 in0.0 mm
01:44 AM 73.1°F22.8°C 64.1°F17.8°C 73% Calm Calm 2.0 mph3.2 kmh 29.96 in1014.6 mb 0.00 in0.0 mm 0.00 in0.0 mm 0.00 in0.0 mm
01:49 AM 72.9°F22.7°C 63.9°F17.7°C 73% 1.0 mph NNW1.6 kmh NNW 1.0 mph1.6 kmh 29.96 in1014.6 mb 0.00 in0.0 mm 0.00 in0.0 mm 0.00 in0.0 mm
01:54 AM 72.8°F22.7°C 64.2°F17.9°C 74% 1.0 mph N1.6 kmh N 3.0 mph4.8 kmh 29.96 in1014.6 mb 0.00 in0.0 mm 0.00 in0.0 mm 0.00 in0.0 mm
01:59 AM 72.7°F22.6°C 64.1°F17.8°C 74% 1.6 mph N2.6 kmh N 3.0 mph4.8 kmh 29.96 in1014.6 mb 0.00 in0.0 mm 0.00 in0.0 mm 0.00 in0.0 mm
02:04 AM 72.5°F22.5°C 63.9°F17.7°C 74% 1.1 mph NNW1.8 kmh NNW 3.0 mph4.8 kmh 29.96 in1014.6 mb 0.00 in0.0 mm 0.00 in0.0 mm 0.00 in0.0 mm
02:09 AM 72.2°F22.3°C 64.0°F17.8°C 75% Calm Calm 3.0 mph4.8 kmh 29.96 in1014.6 mb 0.00 in0.0 mm 0.00 in0.0 mm 0.00 in0.0 mm
02:14 AM 71.9°F22.2°C 64.1°F17.8°C 76% 1.0 mph NE1.6 kmh NE 3.0 mph4.8 kmh 29.96 in1014.6 mb 0.00 in0.0 mm 0.00 in0.0 mm 0.00 in0.0 mm
02:19 AM 71.6°F22.0°C 64.1°F17.8°C 77% 1.0 mph NE1.6 kmh NE 3.0 mph4.8 kmh 29.95 in1014.2 mb 0.00 in0.0 mm 0.00 in0.0 mm 0.00 in0.0 mm
02:24 AM 71.2°F21.8°C 64.1°F17.8°C 78% Calm Calm 1.0 mph1.6 kmh 29.95 in1014.2 mb 0.00 in0.0 mm 0.00 in0.0 mm 0.00 in0.0 mm
02:29 AM 71.0°F21.7°C 64.3°F17.9°C 79% Calm Calm 1.0 mph1.6 kmh 29.95 in1014.2 mb 0.00 in0.0 mm 0.00 in0.0 mm 0.00 in0.0 mm
02:34 AM 70.7°F21.5°C 64.0°F17.8°C 79% Calm Calm 1.0 mph1.6 kmh 29.95 in1014.2 mb 0.00 in0.0 mm 0.00 in0.0 mm 0.00 in0.0 mm
02:39 AM 70.5°F21.4°C 64.1°F17.8°C 80% Calm Calm 1.0 mph1.6 kmh 29.95 in1014.2 mb 0.00 in0.0 mm 0.00 in0.0 mm 0.00 in0.0 mm
02:44 AM 70.2°F21.2°C 63.8°F17.7°C 80% 1.0 mph NE1.6 kmh NE 1.0 mph1.6 kmh 29.95 in1014.2 mb 0.00 in0.0 mm 0.00 in0.0 mm 0.00 in0.0 mm
02:49 AM 70.1°F21.2°C 63.7°F17.6°C 80% Calm Calm 1.0 mph1.6 kmh 29.96 in1014.6 mb 0.00 in0.0 mm 0.00 in0.0 mm 0.00 in0.0 mm
02:54 AM 69.9°F21.1°C 63.9°F17.7°C 81% 1.0 mph NE1.6 kmh NE 1.0 mph1.6 kmh 29.96 in1014.6 mb 0.00 in0.0 mm 0.00 in0.0 mm 0.00 in0.0 mm
02:59 AM 69.7°F20.9°C 63.7°F17.6°C 81% Calm Calm 1.0 mph1.6 kmh 29.96 in1014.6 mb 0.00 in0.0 mm 0.00 in0.0 mm 0.00 in0.0 mm
03:04 AM 69.5°F20.8°C 63.8°F17.7°C 82% 1.0 mph NE1.6 kmh NE 2.0 mph3.2 kmh 29.96 in1014.6 mb 0.00 in0.0 mm 0.00 in0.0 mm 0.00 in0.0 mm
03:09 AM 69.3°F20.7°C 63.6°F17.6°C 82% Calm Calm 2.0 mph3.2 kmh 29.96 in1014.6 mb 0.00 in0.0 mm 0.00 in0.0 mm 0.00 in0.0 mm
03:14 AM 69.1°F20.6°C 63.4°F17.4°C 82% Calm Calm 2.0 mph3.2 kmh 29.97 in1014.9 mb 0.00 in0.0 mm 0.00 in0.0 mm 0.00 in0.0 mm
03:19 AM 69.1°F20.6°C 63.8°F17.7°C 83% 1.3 mph NE2.1 kmh NE 3.0 mph4.8 kmh 29.97 in1014.9 mb 0.00 in0.0 mm 0.00 in0.0 mm 0.00 in0.0 mm
03:24 AM 69.0°F20.6°C 63.3°F17.4°C 82% 1.0 mph NE1.6 kmh NE 4.0 mph6.4 kmh 29.97 in1014.9 mb 0.00 in0.0 mm 0.00 in0.0 mm 0.00 in0.0 mm
03:29 AM 69.0°F20.6°C 63.3°F17.4°C 82% 2.2 mph NE3.5 kmh NE 4.0 mph6.4 kmh 29.97 in1014.9 mb 0.00 in0.0 mm 0.00 in0.0 mm 0.00 in0.0 mm
03:34 AM 69.2°F20.7°C 63.5°F17.5°C 82% 2.1 mph NE3.4 kmh NE 4.0 mph6.4 kmh 29.97 in1014.9 mb 0.00 in0.0 mm 0.00 in0.0 mm 0.00 in0.0 mm
03:39 AM 69.1°F20.6°C 63.4°F17.4°C 82% 1.9 mph NE3.1 kmh NE 4.0 mph6.4 kmh 29.97 in1014.9 mb 0.00 in0.0 mm 0.00 in0.0 mm 0.00 in0.0 mm
03:44 AM 68.9°F20.5°C 63.6°F17.6°C 83% 1.0 mph NE1.6 kmh NE 4.0 mph6.4 kmh 29.97 in1014.9 mb 0.00 in0.0 mm 0.00 in0.0 mm 0.00 in0.0 mm
03:49 AM 68.7°F20.4°C 63.4°F17.4°C 83% 1.0 mph NNE1.6 kmh NNE 4.0 mph6.4 kmh 29.97 in1014.9 mb 0.00 in0.0 mm 0.00 in0.0 mm 0.00 in0.0 mm
03:54 AM 68.5°F20.3°C 63.5°F17.5°C 84% Calm Calm 4.0 mph6.4 kmh 29.97 in1014.9 mb 0.00 in0.0 mm 0.00 in0.0 mm 0.00 in0.0 mm
03:59 AM 68.2°F20.1°C 63.2°F17.3°C 84% Calm Calm 2.0 mph3.2 kmh 29.97 in1014.9 mb 0.00 in0.0 mm 0.00 in0.0 mm 0.00 in0.0 mm
04:04 AM 68.0°F20.0°C 63.3°F17.4°C 85% Calm Calm 2.0 mph3.2 kmh 29.97 in1014.9 mb 0.00 in0.0 mm 0.00 in0.0 mm 0.00 in0.0 mm
04:09 AM 67.7°F19.8°C 63.0°F17.2°C 85% 1.1 mph NE1.8 kmh NE 2.0 mph3.2 kmh 29.98 in1015.2 mb 0.00 in0.0 mm 0.00 in0.0 mm 0.00 in0.0 mm
04:14 AM 67.7°F19.8°C 63.0°F17.2°C 85% 1.0 mph NE1.6 kmh NE 4.0 mph6.4 kmh 29.98 in1015.2 mb 0.00 in0.0 mm 0.00 in0.0 mm 0.00 in0.0 mm
04:19 AM 67.7°F19.8°C 63.0°F17.2°C 85% 1.7 mph NE2.7 kmh NE 4.0 mph6.4 kmh 29.98 in1015.2 mb 0.00 in0.0 mm 0.00 in0.0 mm 0.00 in0.0 mm
04:24 AM 67.7°F19.8°C 63.0°F17.2°C 85% Calm Calm 4.0 mph6.4 kmh 29.98 in1015.2 mb 0.00 in0.0 mm 0.00 in0.0 mm 0.00 in0.0 mm
04:29 AM 67.7°F19.8°C 63.0°F17.2°C 85% Calm Calm 4.0 mph6.4 kmh 29.99 in1015.6 mb 0.00 in0.0 mm 0.00 in0.0 mm 0.00 in0.0 mm
04:34 AM 67.7°F19.8°C 63.0°F17.2°C 85% 1.7 mph NE2.7 kmh NE 4.0 mph6.4 kmh 29.99 in1015.6 mb 0.00 in0.0 mm 0.00 in0.0 mm 0.00 in0.0 mm
04:39 AM 67.7°F19.8°C 63.0°F17.2°C 85% Calm Calm 3.0 mph4.8 kmh 29.99 in1015.6 mb 0.00 in0.0 mm 0.00 in0.0 mm 0.00 in0.0 mm
04:44 AM 67.7°F19.8°C 63.0°F17.2°C 85% 1.5 mph NE2.4 kmh NE 3.0 mph4.8 kmh 29.99 in1015.6 mb 0.00 in0.0 mm 0.00 in0.0 mm 0.00 in0.0 mm
04:49 AM 67.6°F19.8°C 63.0°F17.2°C 85% 1.0 mph NE1.6 kmh NE 3.0 mph4.8 kmh 29.99 in1015.6 mb 0.00 in0.0 mm 0.00 in0.0 mm 0.00 in0.0 mm
04:54 AM 67.5°F19.7°C 62.9°F17.2°C 85% 1.5 mph NNE2.4 kmh NNE 2.0 mph3.2 kmh 29.99 in1015.6 mb 0.00 in0.0 mm 0.00 in0.0 mm 0.00 in0.0 mm
04:59 AM 67.5°F19.7°C 62.9°F17.2°C 85% Calm Calm 2.0 mph3.2 kmh 29.99 in1015.6 mb 0.00 in0.0 mm 0.00 in0.0 mm 0.00 in0.0 mm
05:04 AM 67.4°F19.7°C 63.1°F17.3°C 86% Calm Calm 2.0 mph3.2 kmh 30.00 in1015.9 mb 0.00 in0.0 mm 0.00 in0.0 mm 0.00 in0.0 mm
05:09 AM 67.3°F19.6°C 63.0°F17.2°C 86% Calm Calm 2.0 mph3.2 kmh 30.00 in1015.9 mb 0.00 in0.0 mm 0.00 in0.0 mm 0.00 in0.0 mm
05:14 AM 67.2°F19.6°C 62.9°F17.2°C 86% 1.0 mph NW1.6 kmh NW 1.0 mph1.6 kmh 30.00 in1015.9 mb 0.00 in0.0 mm 0.00 in0.0 mm 0.00 in0.0 mm
05:19 AM 67.2°F19.6°C 62.9°F17.2°C 86% 1.0 mph N1.6 kmh N 3.0 mph4.8 kmh 30.00 in1015.9 mb 0.00 in0.0 mm 0.00 in0.0 mm 0.00 in0.0 mm
05:24 AM 67.1°F19.5°C 62.8°F17.1°C 86% 1.3 mph NNW2.1 kmh NNW 3.0 mph4.8 kmh 30.00 in1015.9 mb 0.00 in0.0 mm 0.00 in0.0 mm 0.00 in0.0 mm
05:29 AM 67.2°F19.6°C 62.9°F17.2°C 86% 1.6 mph NW2.6 kmh NW 3.0 mph4.8 kmh 30.00 in1015.9 mb 0.00 in0.0 mm 0.00 in0.0 mm 0.00 in0.0 mm
05:34 AM 67.2°F19.6°C 62.9°F17.2°C 86% 1.0 mph N1.6 kmh N 3.0 mph4.8 kmh 30.00 in1015.9 mb 0.00 in0.0 mm 0.00 in0.0 mm 0.00 in0.0 mm
05:39 AM 67.1°F19.5°C 62.8°F17.1°C 86% 1.3 mph NW2.1 kmh NW 3.0 mph4.8 kmh 30.00 in1015.9 mb 0.00 in0.0 mm 0.00 in0.0 mm 0.00 in0.0 mm
05:44 AM 67.0°F19.4°C 62.7°F17.1°C 86% 1.0 mph NNW1.6 kmh NNW 3.0 mph4.8 kmh 30.00 in1015.9 mb 0.00 in0.0 mm 0.00 in0.0 mm 0.00 in0.0 mm
05:49 AM 66.8°F19.3°C 62.8°F17.1°C 87% 1.0 mph N1.6 kmh N 2.0 mph3.2 kmh 30.00 in1015.9 mb 0.00 in0.0 mm 0.00 in0.0 mm 0.00 in0.0 mm
05:54 AM 66.7°F19.3°C 62.7°F17.1°C 87% 1.0 mph N1.6 kmh N 2.0 mph3.2 kmh 30.01 in1016.3 mb 0.00 in0.0 mm 0.00 in0.0 mm 0.00 in0.0 mm
05:59 AM 66.6°F19.2°C 62.6°F17.0°C 87% Calm Calm 2.0 mph3.2 kmh 30.01 in1016.3 mb 0.00 in0.0 mm 0.00 in0.0 mm 0.00 in0.0 mm
06:04 AM 66.6°F19.2°C 62.6°F17.0°C 87% 1.0 mph NNW1.6 kmh NNW 2.0 mph3.2 kmh 30.01 in1016.3 mb 0.00 in0.0 mm 0.00 in0.0 mm 0.00 in0.0 mm
06:09 AM 66.5°F19.2°C 62.5°F16.9°C 87% 1.3 mph NNW2.1 kmh NNW 2.0 mph3.2 kmh 30.01 in1016.3 mb 0.00 in0.0 mm 0.00 in0.0 mm 0.00 in0.0 mm
06:14 AM 66.4°F19.1°C 62.4°F16.9°C 87% 1.0 mph NNW1.6 kmh NNW 2.0 mph3.2 kmh 30.01 in1016.3 mb 0.00 in0.0 mm 0.00 in0.0 mm 0.00 in0.0 mm
06:19 AM 66.4°F19.1°C 62.4°F16.9°C 87% 1.0 mph NNE1.6 kmh NNE 2.0 mph3.2 kmh 30.02 in1016.6 mb 0.00 in0.0 mm 0.00 in0.0 mm 0.00 in0.0 mm
06:24 AM 66.4°F19.1°C 62.4°F16.9°C 87% 1.0 mph N1.6 kmh N 2.0 mph3.2 kmh 30.02 in1016.6 mb 0.00 in0.0 mm 0.00 in0.0 mm 0.00 in0.0 mm
06:29 AM 66.7°F19.3°C 62.7°F17.1°C 87% Calm Calm 2.0 mph3.2 kmh 30.02 in1016.6 mb 0.00 in0.0 mm 0.00 in0.0 mm 0.00 in0.0 mm
06:34 AM 67.1°F19.5°C 62.8°F17.1°C 86% 1.0 mph NNW1.6 kmh NNW 2.0 mph3.2 kmh 30.02 in1016.6 mb 0.00 in0.0 mm 0.00 in0.0 mm 0.00 in0.0 mm
06:39 AM 67.4°F19.7°C 62.8°F17.1°C 85% 1.6 mph NNW2.6 kmh NNW 3.0 mph4.8 kmh 30.02 in1016.6 mb 0.00 in0.0 mm 0.00 in0.0 mm 0.00 in0.0 mm
06:44 AM 67.7°F19.8°C 63.0°F17.2°C 85% 1.0 mph NNW1.6 kmh NNW 3.0 mph4.8 kmh 30.02 in1016.6 mb 0.00 in0.0 mm 0.00 in0.0 mm 0.00 in0.0 mm
06:49 AM 68.1°F20.1°C 63.1°F17.3°C 84% 1.3 mph NE2.1 kmh NE 3.0 mph4.8 kmh 30.02 in1016.6 mb 0.00 in0.0 mm 0.00 in0.0 mm 0.00 in0.0 mm
06:54 AM 68.4°F20.2°C 63.1°F17.3°C 83% 1.0 mph NW1.6 kmh NW 3.0 mph4.8 kmh 30.03 in1016.9 mb 0.00 in0.0 mm 0.00 in0.0 mm 0.00 in0.0 mm
06:59 AM 68.7°F20.4°C 63.0°F17.2°C 82% 1.1 mph NW1.8 kmh NW 2.0 mph3.2 kmh 30.03 in1016.9 mb 0.00 in0.0 mm 0.00 in0.0 mm 0.00 in0.0 mm
07:04 AM 69.0°F20.6°C 63.0°F17.2°C 81% 1.2 mph N1.9 kmh N 3.0 mph4.8 kmh 30.03 in1016.9 mb 0.00 in0.0 mm 0.00 in0.0 mm 0.00 in0.0 mm
07:09 AM 69.3°F20.7°C 63.2°F17.3°C 81% Calm Calm 3.0 mph4.8 kmh 30.03 in1016.9 mb 0.00 in0.0 mm 0.00 in0.0 mm 0.00 in0.0 mm
07:14 AM 69.6°F20.9°C 63.6°F17.6°C 81% Calm Calm 3.0 mph4.8 kmh 30.03 in1016.9 mb 0.00 in0.0 mm 0.00 in0.0 mm 0.00 in0.0 mm
07:19 AM 70.0°F21.1°C 63.6°F17.6°C 80% Calm Calm 3.0 mph4.8 kmh 30.04 in1017.3 mb 0.00 in0.0 mm 0.00 in0.0 mm 0.00 in0.0 mm
07:24 AM 70.4°F21.3°C 63.6°F17.6°C 79% 1.3 mph N2.1 kmh N 2.0 mph3.2 kmh 30.04 in1017.3 mb 0.00 in0.0 mm 0.00 in0.0 mm 0.00 in0.0 mm
07:28 AM 70.6°F21.4°C 63.5°F17.5°C 78% 1.0 mph N1.6 kmh N 2.0 mph3.2 kmh 30.04 in1017.3 mb 0.00 in0.0 mm 0.00 in0.0 mm 0.00 in0.0 mm
07:33 AM 70.9°F21.6°C 63.8°F17.7°C 78% 1.6 mph N2.6 kmh N 3.0 mph4.8 kmh 30.04 in1017.3 mb 0.00 in0.0 mm 0.00 in0.0 mm 0.00 in0.0 mm
07:38 AM 71.4°F21.9°C 63.9°F17.7°C 77% 1.1 mph N1.8 kmh N 3.0 mph4.8 kmh 30.04 in1017.3 mb 0.00 in0.0 mm 0.00 in0.0 mm 0.00 in0.0 mm
07:43 AM 71.8°F22.1°C 64.3°F17.9°C 77% 1.5 mph NE2.4 kmh NE 3.0 mph4.8 kmh 30.04 in1017.3 mb 0.00 in0.0 mm 0.00 in0.0 mm 0.00 in0.0 mm
07:48 AM 72.1°F22.3°C 64.3°F17.9°C 76% 1.6 mph NE2.6 kmh NE 4.0 mph6.4 kmh 30.05 in1017.6 mb 0.00 in0.0 mm 0.00 in0.0 mm 0.00 in0.0 mm
07:53 AM 72.4°F22.4°C 64.5°F18.1°C 76% 1.0 mph NNE1.6 kmh NNE 4.0 mph6.4 kmh 30.05 in1017.6 mb 0.00 in0.0 mm 0.00 in0.0 mm 0.00 in0.0 mm
07:58 AM 72.4°F22.4°C 63.8°F17.7°C 74% 2.8 mph NE4.5 kmh NE 6.0 mph9.7 kmh 30.05 in1017.6 mb 0.00 in0.0 mm 0.00 in0.0 mm 0.00 in0.0 mm
08:03 AM 72.1°F22.3°C 63.9°F17.7°C 75% 3.0 mph NE4.8 kmh NE 6.0 mph9.7 kmh 30.05 in1017.6 mb 0.00 in0.0 mm 0.00 in0.0 mm 0.00 in0.0 mm
08:08 AM 71.9°F22.2°C 63.7°F17.6°C 75% 3.8 mph NE6.1 kmh NE 7.0 mph11.3 kmh 30.05 in1017.6 mb 0.00 in0.0 mm 0.00 in0.0 mm 0.00 in0.0 mm
08:13 AM 71.7°F22.1°C 63.9°F17.7°C 76% 4.2 mph NE6.8 kmh NE 8.0 mph12.9 kmh 30.05 in1017.6 mb 0.00 in0.0 mm 0.00 in0.0 mm 0.00 in0.0 mm
08:18 AM 71.7°F22.1°C 63.9°F17.7°C 76% 4.5 mph NE7.2 kmh NE 8.0 mph12.9 kmh 30.06 in1017.9 mb 0.00 in0.0 mm 0.00 in0.0 mm 0.00 in0.0 mm
08:23 AM 72.2°F22.3°C 64.3°F17.9°C 76% 2.4 mph NE3.9 kmh NE 8.0 mph12.9 kmh 30.06 in1017.9 mb 0.00 in0.0 mm 0.00 in0.0 mm 0.00 in0.0 mm
08:28 AM 72.7°F22.6°C 63.9°F17.7°C 74% 3.4 mph NE5.5 kmh NE 8.0 mph12.9 kmh 30.06 in1017.9 mb 0.00 in0.0 mm 0.00 in0.0 mm 0.00 in0.0 mm
08:33 AM 73.0°F22.8°C 64.4°F18.0°C 74% 1.3 mph NE2.1 kmh NE 8.0 mph12.9 kmh 30.06 in1017.9 mb 0.00 in0.0 mm 0.00 in0.0 mm 0.00 in0.0 mm
08:38 AM 73.5°F23.1°C 64.5°F18.1°C 73% 2.2 mph ENE3.5 kmh ENE 5.0 mph8.0 kmh 30.06 in1017.9 mb 0.00 in0.0 mm 0.00 in0.0 mm 0.00 in0.0 mm
08:43 AM 73.9°F23.3°C 64.5°F18.1°C 72% 3.2 mph NE5.1 kmh NE 6.0 mph9.7 kmh 30.06 in1017.9 mb 0.00 in0.0 mm 0.00 in0.0 mm 0.00 in0.0 mm
08:48 AM 74.0°F23.3°C 65.0°F18.3°C 73% 2.8 mph NE4.5 kmh NE 8.0 mph12.9 kmh 30.07 in1018.3 mb 0.00 in0.0 mm 0.00 in0.0 mm 0.00 in0.0 mm
08:53 AM 74.3°F23.5°C 64.9°F18.3°C 72% 1.6 mph NE2.6 kmh NE 8.0 mph12.9 kmh 30.07 in1018.3 mb 0.00 in0.0 mm 0.00 in0.0 mm 0.00 in0.0 mm
08:58 AM 75.2°F24.0°C 65.1°F18.4°C 71% 1.9 mph ENE3.1 kmh ENE 8.0 mph12.9 kmh 30.07 in1018.3 mb 0.00 in0.0 mm 0.00 in0.0 mm 0.00 in0.0 mm
09:03 AM 75.0°F23.9°C 64.8°F18.2°C 70% 2.8 mph NE4.5 kmh NE 8.0 mph12.9 kmh 30.07 in1018.3 mb 0.00 in0.0 mm 0.00 in0.0 mm 0.00 in0.0 mm
09:08 AM 75.5°F24.2°C 64.8°F18.2°C 69% 3.7 mph NE6.0 kmh NE 8.0 mph12.9 kmh 30.07 in1018.3 mb 0.00 in0.0 mm 0.00 in0.0 mm 0.00 in0.0 mm
09:13 AM 75.8°F24.3°C 65.9°F18.8°C 71% 2.7 mph NE4.3 kmh NE 8.0 mph12.9 kmh 30.07 in1018.3 mb 0.00 in0.0 mm 0.00 in0.0 mm 0.00 in0.0 mm
09:18 AM 75.7°F24.3°C 65.2°F18.4°C 70% 1.9 mph NE3.1 kmh NE 8.0 mph12.9 kmh 30.07 in1018.3 mb 0.00 in0.0 mm 0.00 in0.0 mm 0.00 in0.0 mm
09:23 AM 75.9°F24.4°C 66.0°F18.9°C 71% 1.8 mph NE2.9 kmh NE 7.0 mph11.3 kmh 30.07 in1018.3 mb 0.00 in0.0 mm 0.00 in0.0 mm 0.00 in0.0 mm
09:28 AM 76.1°F24.5°C 65.0°F18.3°C 68% 3.3 mph NNE5.3 kmh NNE 7.0 mph11.3 kmh 30.07 in1018.3 mb 0.00 in0.0 mm 0.00 in0.0 mm 0.00 in0.0 mm
09:33 AM 76.7°F24.8°C 66.0°F18.9°C 69% 1.8 mph N2.9 kmh N 7.0 mph11.3 kmh 30.07 in1018.3 mb 0.00 in0.0 mm 0.00 in0.0 mm 0.00 in0.0 mm
09:38 AM 77.5°F25.3°C 65.9°F18.8°C 67% 1.4 mph NE2.3 kmh NE 7.0 mph11.3 kmh 30.07 in1018.3 mb 0.00 in0.0 mm 0.00 in0.0 mm 0.00 in0.0 mm
09:43 AM 77.2°F25.1°C 65.2°F18.4°C 66% 3.1 mph NE5.0 kmh NE 8.0 mph12.9 kmh 30.07 in1018.3 mb 0.00 in0.0 mm 0.00 in0.0 mm 0.00 in0.0 mm
09:48 AM 77.5°F25.3°C 65.2°F18.4°C 66% 2.4 mph NE3.9 kmh NE 8.0 mph12.9 kmh 30.07 in1018.3 mb 0.00 in0.0 mm 0.00 in0.0 mm 0.00 in0.0 mm
09:53 AM 78.1°F25.6°C 65.8°F18.8°C 66% 1.1 mph NE1.8 kmh NE 8.0 mph12.9 kmh 30.07 in1018.3 mb 0.00 in0.0 mm 0.00 in0.0 mm 0.00 in0.0 mm
09:58 AM 78.4°F25.8°C 65.0°F18.3°C 63% 2.1 mph ENE3.4 kmh ENE 8.0 mph12.9 kmh 30.07 in1018.3 mb 0.00 in0.0 mm 0.00 in0.0 mm 0.00 in0.0 mm
10:03 AM 78.8°F26.0°C 65.4°F18.6°C 63% 1.4 mph NNE2.3 kmh NNE 8.0 mph12.9 kmh 30.07 in1018.3 mb 0.00 in0.0 mm 0.00 in0.0 mm 0.00 in0.0 mm
10:08 AM 78.6°F25.9°C 65.2°F18.4°C 63% 3.6 mph NE5.8 kmh NE 8.0 mph12.9 kmh 30.08 in1018.6 mb 0.00 in0.0 mm 0.00 in0.0 mm 0.00 in0.0 mm
10:13 AM 78.7°F25.9°C 65.3°F18.5°C 63% 1.9 mph NNE3.1 kmh NNE 8.0 mph12.9 kmh 30.07 in1018.3 mb 0.00 in0.0 mm 0.00 in0.0 mm 0.00 in0.0 mm
10:18 AM 78.5°F25.8°C 64.4°F18.0°C 62% 4.8 mph NE7.7 kmh NE 8.0 mph12.9 kmh 30.08 in1018.6 mb 0.00 in0.0 mm 0.00 in0.0 mm 0.00 in0.0 mm
10:23 AM 78.8°F26.0°C 64.7°F18.2°C 62% 1.8 mph N2.9 kmh N 8.0 mph12.9 kmh 30.08 in1018.6 mb 0.00 in0.0 mm 0.00 in0.0 mm 0.00 in0.0 mm
10:28 AM 79.0°F26.1°C 64.6°F18.1°C 61% 2.3 mph NE3.7 kmh NE 8.0 mph12.9 kmh 30.07 in1018.3 mb 0.00 in0.0 mm 0.00 in0.0 mm 0.00 in0.0 mm
10:33 AM 78.9°F26.1°C 65.0°F18.3°C 62% 4.7 mph ENE7.6 kmh ENE 8.0 mph12.9 kmh 30.07 in1018.3 mb 0.00 in0.0 mm 0.00 in0.0 mm 0.00 in0.0 mm
10:38 AM 79.0°F26.1°C 64.6°F18.1°C 61% 3.7 mph NE6.0 kmh NE 8.0 mph12.9 kmh 30.07 in1018.3 mb 0.00 in0.0 mm 0.00 in0.0 mm 0.00 in0.0 mm
10:43 AM 79.4°F26.3°C 65.5°F18.6°C 62% 3.6 mph E5.8 kmh E 8.0 mph12.9 kmh 30.07 in1018.3 mb 0.00 in0.0 mm 0.00 in0.0 mm 0.00 in0.0 mm
10:48 AM 79.4°F26.3°C 65.5°F18.6°C 62% 2.8 mph NE4.5 kmh NE 8.0 mph12.9 kmh 30.07 in1018.3 mb 0.00 in0.0 mm 0.00 in0.0 mm 0.00 in0.0 mm
10:53 AM 79.6°F26.4°C 64.7°F18.2°C 60% 3.6 mph ENE5.8 kmh ENE 9.0 mph14.5 kmh 30.07 in1018.3 mb 0.00 in0.0 mm 0.00 in0.0 mm 0.00 in0.0 mm
10:58 AM 79.7°F26.5°C 65.1°F18.4°C 61% 4.2 mph E6.8 kmh E 9.0 mph14.5 kmh 30.07 in1018.3 mb 0.00 in0.0 mm 0.00 in0.0 mm 0.00 in0.0 mm
11:03 AM 79.8°F26.6°C 64.4°F18.0°C 59% 3.8 mph E6.1 kmh E 9.0 mph14.5 kmh 30.07 in1018.3 mb 0.00 in0.0 mm 0.00 in0.0 mm 0.00 in0.0 mm
11:08 AM 80.2°F26.8°C 64.8°F18.2°C 59% 2.6 mph ENE4.2 kmh ENE 9.0 mph14.5 kmh 30.07 in1018.3 mb 0.00 in0.0 mm 0.00 in0.0 mm 0.00 in0.0 mm
11:13 AM 80.3°F26.8°C 63.9°F17.7°C 57% 1.0 mph SE1.6 kmh SE 7.0 mph11.3 kmh 30.07 in1018.3 mb 0.00 in0.0 mm 0.00 in0.0 mm 0.00 in0.0 mm
11:18 AM 80.5°F26.9°C 64.6°F18.1°C 58% 4.4 mph NE7.1 kmh NE 7.0 mph11.3 kmh 30.07 in1018.3 mb 0.00 in0.0 mm 0.00 in0.0 mm 0.00 in0.0 mm
11:23 AM 80.7°F27.1°C 64.8°F18.2°C 58% 2.1 mph NE3.4 kmh NE 7.0 mph11.3 kmh 30.06 in1017.9 mb 0.00 in0.0 mm 0.00 in0.0 mm 0.00 in0.0 mm
11:28 AM 81.1°F27.3°C 63.1°F17.3°C 54% 4.2 mph E6.8 kmh E 8.0 mph12.9 kmh 30.06 in1017.9 mb 0.00 in0.0 mm 0.00 in0.0 mm 0.00 in0.0 mm
11:33 AM 81.1°F27.3°C 62.3°F16.8°C 53% 3.9 mph SE6.3 kmh SE 8.0 mph12.9 kmh 30.06 in1017.9 mb 0.00 in0.0 mm 0.00 in0.0 mm 0.00 in0.0 mm
11:38 AM 81.4°F27.4°C 62.2°F16.8°C 52% 4.0 mph E6.4 kmh E 8.0 mph12.9 kmh 30.06 in1017.9 mb 0.00 in0.0 mm 0.00 in0.0 mm 0.00 in0.0 mm
11:43 AM 81.3°F27.4°C 63.2°F17.3°C 54% 2.3 mph E3.7 kmh E 10.0 mph16.1 kmh 30.06 in1017.9 mb 0.00 in0.0 mm 0.00 in0.0 mm 0.00 in0.0 mm
11:48 AM 81.9°F27.7°C 63.8°F17.7°C 54% 2.4 mph E3.9 kmh E 10.0 mph16.1 kmh 30.06 in1017.9 mb 0.00 in0.0 mm 0.00 in0.0 mm 0.00 in0.0 mm
11:53 AM 81.6°F27.6°C 62.8°F17.1°C 53% 2.6 mph SE4.2 kmh SE 10.0 mph16.1 kmh 30.06 in1017.9 mb 0.00 in0.0 mm 0.00 in0.0 mm 0.00 in0.0 mm
11:58 AM 81.8°F27.7°C 62.6°F17.0°C 52% 3.2 mph ESE5.1 kmh ESE 7.0 mph11.3 kmh 30.06 in1017.9 mb 0.00 in0.0 mm 0.00 in0.0 mm 0.00 in0.0 mm
12:03 PM 82.3°F27.9°C 63.1°F17.3°C 52% 2.2 mph NE3.5 kmh NE 7.0 mph11.3 kmh 30.06 in1017.9 mb 0.00 in0.0 mm 0.00 in0.0 mm 0.00 in0.0 mm
12:08 PM 82.4°F28.0°C 63.2°F17.3°C 52% 1.1 mph SE1.8 kmh SE 7.0 mph11.3 kmh 30.06 in1017.9 mb 0.00 in0.0 mm 0.00 in0.0 mm 0.00 in0.0 mm
12:13 PM 82.7°F28.2°C 62.7°F17.1°C 51% 3.1 mph SE5.0 kmh SE 7.0 mph11.3 kmh 30.06 in1017.9 mb 0.00 in0.0 mm 0.00 in0.0 mm 0.00 in0.0 mm
12:18 PM 82.8°F28.2°C 63.5°F17.5°C 52% 3.1 mph E5.0 kmh E 10.0 mph16.1 kmh 30.06 in1017.9 mb 0.00 in0.0 mm 0.00 in0.0 mm 0.00 in0.0 mm
12:23 PM 82.6°F28.1°C 61.6°F16.4°C 49% 2.6 mph E4.2 kmh E 10.0 mph16.1 kmh 30.06 in1017.9 mb 0.00 in0.0 mm 0.00 in0.0 mm 0.00 in0.0 mm
12:28 PM 82.6°F28.1°C 62.1°F16.7°C 50% 1.6 mph E2.6 kmh E 10.0 mph16.1 kmh 30.05 in1017.6 mb 0.00 in0.0 mm 0.00 in0.0 mm 0.00 in0.0 mm
12:33 PM 83.0°F28.3°C 62.6°F17.0°C 50% 2.9 mph NE4.7 kmh NE 6.0 mph9.7 kmh 30.05 in1017.6 mb 0.00 in0.0 mm 0.00 in0.0 mm 0.00 in0.0 mm
12:38 PM 82.6°F28.1°C 61.6°F16.4°C 49% 2.0 mph E3.2 kmh E 6.0 mph9.7 kmh 30.05 in1017.6 mb 0.00 in0.0 mm 0.00 in0.0 mm 0.00 in0.0 mm
12:43 PM 82.9°F28.3°C 62.5°F16.9°C 50% 1.4 mph NW2.3 kmh NW 6.0 mph9.7 kmh 30.05 in1017.6 mb 0.00 in0.0 mm 0.00 in0.0 mm 0.00 in0.0 mm
12:48 PM 83.4°F28.6°C 61.7°F16.5°C 48% 1.0 mph ENE1.6 kmh ENE 6.0 mph9.7 kmh 30.05 in1017.6 mb 0.00 in0.0 mm 0.00 in0.0 mm 0.00 in0.0 mm
12:53 PM 83.7°F28.7°C 61.4°F16.3°C 47% 1.5 mph W2.4 kmh W 6.0 mph9.7 kmh 30.05 in1017.6 mb 0.00 in0.0 mm 0.00 in0.0 mm 0.00 in0.0 mm
12:58 PM 83.6°F28.7°C 61.9°F16.6°C 48% 1.1 mph WSW1.8 kmh WSW 3.0 mph4.8 kmh 30.04 in1017.3 mb 0.00 in0.0 mm 0.00 in0.0 mm 0.00 in0.0 mm
01:03 PM 83.6°F28.7°C 61.2°F16.2°C 47% 2.1 mph ENE3.4 kmh ENE 7.0 mph11.3 kmh 30.04 in1017.3 mb 0.00 in0.0 mm 0.00 in0.0 mm 0.00 in0.0 mm
01:08 PM 83.7°F28.7°C 60.8°F16.0°C 46% 4.0 mph E6.4 kmh E 7.0 mph11.3 kmh 30.04 in1017.3 mb 0.00 in0.0 mm 0.00 in0.0 mm 0.00 in0.0 mm
01:13 PM 83.4°F28.6°C 61.7°F16.5°C 48% 2.7 mph E4.3 kmh E 7.0 mph11.3 kmh 30.04 in1017.3 mb 0.00 in0.0 mm 0.00 in0.0 mm 0.00 in0.0 mm
01:18 PM 83.3°F28.5°C 59.7°F15.4°C 45% 1.0 mph E1.6 kmh E 7.0 mph11.3 kmh 30.04 in1017.3 mb 0.00 in0.0 mm 0.00 in0.0 mm 0.00 in0.0 mm
01:23 PM 83.9°F28.8°C 61.5°F16.4°C 47% 1.0 mph WNW1.6 kmh WNW 7.0 mph11.3 kmh 30.04 in1017.3 mb 0.00 in0.0 mm 0.00 in0.0 mm 0.00 in0.0 mm
01:27 PM 84.1°F28.9°C 61.1°F16.2°C 46% 1.0 mph SE1.6 kmh SE 5.0 mph8.0 kmh 30.03 in1016.9 mb 0.00 in0.0 mm 0.00 in0.0 mm 0.00 in0.0 mm
01:32 PM 84.6°F29.2°C 61.6°F16.4°C 46% 1.0 mph ENE1.6 kmh ENE 5.0 mph8.0 kmh 30.03 in1016.9 mb 0.00 in0.0 mm 0.00 in0.0 mm 0.00 in0.0 mm
01:37 PM 84.8°F29.3°C 60.5°F15.8°C 44% 3.3 mph E5.3 kmh E 5.0 mph8.0 kmh 30.03 in1016.9 mb 0.00 in0.0 mm 0.00 in0.0 mm 0.00 in0.0 mm
01:42 PM 84.1°F28.9°C 60.5°F15.8°C 45% 1.9 mph ESE3.1 kmh ESE 6.0 mph9.7 kmh 30.03 in1016.9 mb 0.00 in0.0 mm 0.00 in0.0 mm 0.00 in0.0 mm
01:47 PM 84.8°F29.3°C 62.4°F16.9°C 47% 1.6 mph ENE2.6 kmh ENE 6.0 mph9.7 kmh 30.03 in1016.9 mb 0.00 in0.0 mm 0.00 in0.0 mm 0.00 in0.0 mm
01:52 PM 84.9°F29.4°C 59.2°F15.1°C 42% 3.8 mph NE6.1 kmh NE 6.0 mph9.7 kmh 30.02 in1016.6 mb 0.00 in0.0 mm 0.00 in0.0 mm 0.00 in0.0 mm
01:57 PM 84.5°F29.2°C 59.6°F15.3°C 43% 2.4 mph E3.9 kmh E 6.0 mph9.7 kmh 30.02 in1016.6 mb 0.00 in0.0 mm 0.00 in0.0 mm 0.00 in0.0 mm
02:02 PM 84.3°F29.1°C 60.0°F15.6°C 44% 3.5 mph NE5.6 kmh NE 8.0 mph12.9 kmh 30.02 in1016.6 mb 0.00 in0.0 mm 0.00 in0.0 mm 0.00 in0.0 mm
02:07 PM 84.5°F29.2°C 61.5°F16.4°C 46% 2.7 mph E4.3 kmh E 8.0 mph12.9 kmh 30.02 in1016.6 mb 0.00 in0.0 mm 0.00 in0.0 mm 0.00 in0.0 mm
02:12 PM 84.3°F29.1°C 60.7°F15.9°C 45% 1.6 mph ENE2.6 kmh ENE 8.0 mph12.9 kmh 30.02 in1016.6 mb 0.00 in0.0 mm 0.00 in0.0 mm 0.00 in0.0 mm
02:17 PM 84.5°F29.2°C 60.2°F15.7°C 44% 4.7 mph NE7.6 kmh NE 9.0 mph14.5 kmh 30.02 in1016.6 mb 0.00 in0.0 mm 0.00 in0.0 mm 0.00 in0.0 mm
02:22 PM 84.7°F29.3°C 60.4°F15.8°C 44% 3.6 mph E5.8 kmh E 9.0 mph14.5 kmh 30.01 in1016.3 mb 0.00 in0.0 mm 0.00 in0.0 mm 0.00 in0.0 mm
02:27 PM 84.8°F29.3°C 59.8°F15.4°C 43% 2.2 mph ESE3.5 kmh ESE 9.0 mph14.5 kmh 30.01 in1016.3 mb 0.00 in0.0 mm 0.00 in0.0 mm 0.00 in0.0 mm
02:32 PM 85.0°F29.4°C 60.7°F15.9°C 44% 1.0 mph W1.6 kmh W 9.0 mph14.5 kmh 30.01 in1016.3 mb 0.00 in0.0 mm 0.00 in0.0 mm 0.00 in0.0 mm
02:37 PM 85.5°F29.7°C 59.1°F15.1°C 41% 1.3 mph N2.1 kmh N 7.0 mph11.3 kmh 30.01 in1016.3 mb 0.00 in0.0 mm 0.00 in0.0 mm 0.00 in0.0 mm
02:42 PM 85.8°F29.9°C 58.7°F14.8°C 40% Calm Calm 4.0 mph6.4 kmh 30.01 in1016.3 mb 0.00 in0.0 mm 0.00 in0.0 mm 0.00 in0.0 mm
02:47 PM 86.2°F30.1°C 60.4°F15.8°C 42% 2.6 mph E4.2 kmh E 4.0 mph6.4 kmh 30.01 in1016.3 mb 0.00 in0.0 mm 0.00 in0.0 mm 0.00 in0.0 mm
02:52 PM 85.7°F29.8°C 60.0°F15.6°C 42% 3.2 mph E5.1 kmh E 5.0 mph8.0 kmh 30.01 in1016.3 mb 0.00 in0.0 mm 0.00 in0.0 mm 0.00 in0.0 mm
02:57 PM 85.5°F29.7°C 61.1°F16.2°C 44% 2.6 mph ENE4.2 kmh ENE 5.0 mph8.0 kmh 30.01 in1016.3 mb 0.00 in0.0 mm 0.00 in0.0 mm 0.00 in0.0 mm
03:02 PM 85.2°F29.6°C 59.5°F15.3°C 42% 2.3 mph E3.7 kmh E 5.0 mph8.0 kmh 30.01 in1016.3 mb 0.00 in0.0 mm 0.00 in0.0 mm 0.00 in0.0 mm
03:07 PM 85.2°F29.6°C 61.5°F16.4°C 45% 1.0 mph W1.6 kmh W 5.0 mph8.0 kmh 30.00 in1015.9 mb 0.00 in0.0 mm 0.00 in0.0 mm 0.00 in0.0 mm
03:12 PM 85.7°F29.8°C 61.3°F16.3°C 44% 2.5 mph E4.0 kmh E 5.0 mph8.0 kmh 30.00 in1015.9 mb 0.00 in0.0 mm 0.00 in0.0 mm 0.00 in0.0 mm
03:17 PM 85.8°F29.9°C 60.7°F15.9°C 43% 2.8 mph E4.5 kmh E 5.0 mph8.0 kmh 30.00 in1015.9 mb 0.00 in0.0 mm 0.00 in0.0 mm 0.00 in0.0 mm
03:22 PM 85.7°F29.8°C 61.3°F16.3°C 44% 2.2 mph E3.5 kmh E 5.0 mph8.0 kmh 30.00 in1015.9 mb 0.00 in0.0 mm 0.00 in0.0 mm 0.00 in0.0 mm
03:27 PM 85.7°F29.8°C 61.3°F16.3°C 44% 3.3 mph E5.3 kmh E 6.0 mph9.7 kmh 30.00 in1015.9 mb 0.00 in0.0 mm 0.00 in0.0 mm 0.00 in0.0 mm
03:32 PM 85.6°F29.8°C 60.5°F15.8°C 43% 3.0 mph ENE4.8 kmh ENE 6.0 mph9.7 kmh 30.00 in1015.9 mb 0.00 in0.0 mm 0.00 in0.0 mm 0.00 in0.0 mm
03:37 PM 85.5°F29.7°C 60.5°F15.8°C 43% 3.8 mph E6.1 kmh E 8.0 mph12.9 kmh 30.00 in1015.9 mb 0.00 in0.0 mm 0.00 in0.0 mm 0.00 in0.0 mm
03:42 PM 85.4°F29.7°C 61.0°F16.1°C 44% 2.9 mph SE4.7 kmh SE 8.0 mph12.9 kmh 29.99 in1015.6 mb 0.00 in0.0 mm 0.00 in0.0 mm 0.00 in0.0 mm
03:47 PM 85.7°F29.8°C 62.0°F16.7°C 45% 1.5 mph SSE2.4 kmh SSE 8.0 mph12.9 kmh 29.99 in1015.6 mb 0.00 in0.0 mm 0.00 in0.0 mm 0.00 in0.0 mm
03:52 PM 86.1°F30.1°C 61.0°F16.1°C 43% 2.8 mph ENE4.5 kmh ENE 8.0 mph12.9 kmh 29.99 in1015.6 mb 0.00 in0.0 mm 0.00 in0.0 mm 0.00 in0.0 mm
03:57 PM 85.9°F29.9°C 60.8°F16.0°C 43% 3.5 mph NE5.6 kmh NE 7.0 mph11.3 kmh 29.99 in1015.6 mb 0.00 in0.0 mm 0.00 in0.0 mm 0.00 in0.0 mm
04:02 PM 86.2°F30.1°C 61.8°F16.6°C 44% 2.6 mph NE4.2 kmh NE 6.0 mph9.7 kmh 29.99 in1015.6 mb 0.00 in0.0 mm 0.00 in0.0 mm 0.00 in0.0 mm
04:07 PM 85.9°F29.9°C 61.5°F16.4°C 44% 2.0 mph ENE3.2 kmh ENE 6.0 mph9.7 kmh 29.99 in1015.6 mb 0.00 in0.0 mm 0.00 in0.0 mm 0.00 in0.0 mm
04:12 PM 86.1°F30.1°C 61.0°F16.1°C 43% 3.5 mph E5.6 kmh E 5.0 mph8.0 kmh 29.99 in1015.6 mb 0.00 in0.0 mm 0.00 in0.0 mm 0.00 in0.0 mm
04:17 PM 86.0°F30.0°C 60.2°F15.7°C 42% 3.6 mph NE5.8 kmh NE 6.0 mph9.7 kmh 29.99 in1015.6 mb 0.00 in0.0 mm 0.00 in0.0 mm 0.00 in0.0 mm
04:22 PM 85.8°F29.9°C 61.4°F16.3°C 44% 1.5 mph ENE2.4 kmh ENE 7.0 mph11.3 kmh 29.99 in1015.6 mb 0.00 in0.0 mm 0.00 in0.0 mm 0.00 in0.0 mm
04:27 PM 85.9°F29.9°C 60.8°F16.0°C 43% 4.6 mph NE7.4 kmh NE 7.0 mph11.3 kmh 29.99 in1015.6 mb 0.00 in0.0 mm 0.00 in0.0 mm 0.00 in0.0 mm
04:32 PM 85.9°F29.9°C 59.5°F15.3°C 41% 4.1 mph NE6.6 kmh NE 8.0 mph12.9 kmh 29.99 in1015.6 mb 0.00 in0.0 mm 0.00 in0.0 mm 0.00 in0.0 mm
04:37 PM 85.9°F29.9°C 60.1°F15.6°C 42% 1.8 mph NE2.9 kmh NE 8.0 mph12.9 kmh 29.99 in1015.6 mb 0.00 in0.0 mm 0.00 in0.0 mm 0.00 in0.0 mm
04:42 PM 86.0°F30.0°C 60.9°F16.1°C 43% 3.3 mph ENE5.3 kmh ENE 8.0 mph12.9 kmh 29.99 in1015.6 mb 0.00 in0.0 mm 0.00 in0.0 mm 0.00 in0.0 mm
04:47 PM 85.9°F29.9°C 60.1°F15.6°C 42% 3.3 mph ESE5.3 kmh ESE 8.0 mph12.9 kmh 29.99 in1015.6 mb 0.00 in0.0 mm 0.00 in0.0 mm 0.00 in0.0 mm
04:52 PM 86.1°F30.1°C 61.0°F16.1°C 43% 1.4 mph NW2.3 kmh NW 7.0 mph11.3 kmh 29.99 in1015.6 mb 0.00 in0.0 mm 0.00 in0.0 mm 0.00 in0.0 mm
04:57 PM 86.6°F30.3°C 62.8°F17.1°C 45% 1.3 mph NE2.1 kmh NE 7.0 mph11.3 kmh 29.99 in1015.6 mb 0.00 in0.0 mm 0.00 in0.0 mm 0.00 in0.0 mm
05:02 PM 86.3°F30.2°C 60.5°F15.8°C 42% 2.0 mph ENE3.2 kmh ENE 7.0 mph11.3 kmh 29.99 in1015.6 mb 0.00 in0.0 mm 0.00 in0.0 mm 0.00 in0.0 mm
05:07 PM 86.1°F30.1°C 60.3°F15.7°C 42% 3.2 mph NE5.1 kmh NE 7.0 mph11.3 kmh 29.99 in1015.6 mb 0.00 in0.0 mm 0.00 in0.0 mm 0.00 in0.0 mm
05:12 PM 86.2°F30.1°C 61.1°F16.2°C 43% 1.2 mph NW1.9 kmh NW 7.0 mph11.3 kmh 29.99 in1015.6 mb 0.00 in0.0 mm 0.00 in0.0 mm 0.00 in0.0 mm
05:17 PM 86.4°F30.2°C 62.6°F17.0°C 45% 2.3 mph E3.7 kmh E 7.0 mph11.3 kmh 29.99 in1015.6 mb 0.00 in0.0 mm 0.00 in0.0 mm 0.00 in0.0 mm
05:22 PM 86.0°F30.0°C 62.2°F16.8°C 45% 1.5 mph E2.4 kmh E 7.0 mph11.3 kmh 29.99 in1015.6 mb 0.00 in0.0 mm 0.00 in0.0 mm 0.00 in0.0 mm
05:28 PM 85.8°F29.9°C 61.4°F16.3°C 44% 2.1 mph E3.4 kmh E 6.0 mph9.7 kmh 29.99 in1015.6 mb 0.00 in0.0 mm 0.00 in0.0 mm 0.00 in0.0 mm
05:32 PM 85.7°F29.8°C 61.3°F16.3°C 44% 2.1 mph ENE3.4 kmh ENE 6.0 mph9.7 kmh 29.99 in1015.6 mb 0.00 in0.0 mm 0.00 in0.0 mm 0.00 in0.0 mm
05:37 PM 85.7°F29.8°C 61.3°F16.3°C 44% 1.5 mph NE2.4 kmh NE 6.0 mph9.7 kmh 29.99 in1015.6 mb 0.00 in0.0 mm 0.00 in0.0 mm 0.00 in0.0 mm
05:43 PM 85.7°F29.8°C 62.0°F16.7°C 45% 1.3 mph E2.1 kmh E 6.0 mph9.7 kmh 29.99 in1015.6 mb 0.00 in0.0 mm 0.00 in0.0 mm 0.00 in0.0 mm
05:48 PM 85.7°F29.8°C 61.9°F16.6°C 45% 2.4 mph E3.9 kmh E 4.0 mph6.4 kmh 29.99 in1015.6 mb 0.00 in0.0 mm 0.00 in0.0 mm 0.00 in0.0 mm
05:53 PM 85.7°F29.8°C 62.0°F16.7°C 45% 1.9 mph E3.1 kmh E 4.0 mph6.4 kmh 30.00 in1015.9 mb 0.00 in0.0 mm 0.00 in0.0 mm 0.00 in0.0 mm
05:58 PM 85.6°F29.8°C 61.9°F16.6°C 45% 1.0 mph E1.6 kmh E 5.0 mph8.0 kmh 30.00 in1015.9 mb 0.00 in0.0 mm 0.00 in0.0 mm 0.00 in0.0 mm
06:03 PM 85.5°F29.7°C 61.1°F16.2°C 44% 1.8 mph E2.9 kmh E 5.0 mph8.0 kmh 30.00 in1015.9 mb 0.00 in0.0 mm 0.00 in0.0 mm 0.00 in0.0 mm
06:08 PM 85.5°F29.7°C 61.8°F16.6°C 45% 3.4 mph ENE5.5 kmh ENE 5.0 mph8.0 kmh 30.00 in1015.9 mb 0.00 in0.0 mm 0.00 in0.0 mm 0.00 in0.0 mm
06:13 PM 85.4°F29.7°C 62.3°F16.8°C 46% 2.3 mph ENE3.7 kmh ENE 5.0 mph8.0 kmh 30.00 in1015.9 mb 0.00 in0.0 mm 0.00 in0.0 mm 0.00 in0.0 mm
06:18 PM 85.1°F29.5°C 62.7°F17.1°C 47% 2.2 mph ENE3.5 kmh ENE 7.0 mph11.3 kmh 30.00 in1015.9 mb 0.00 in0.0 mm 0.00 in0.0 mm 0.00 in0.0 mm
06:23 PM 84.8°F29.3°C 62.4°F16.9°C 47% 2.2 mph ENE3.5 kmh ENE 7.0 mph11.3 kmh 30.00 in1015.9 mb 0.00 in0.0 mm 0.00 in0.0 mm 0.00 in0.0 mm
06:28 PM 84.7°F29.3°C 62.3°F16.8°C 47% 2.3 mph ENE3.7 kmh ENE 7.0 mph11.3 kmh 30.00 in1015.9 mb 0.00 in0.0 mm 0.00 in0.0 mm 0.00 in0.0 mm
06:33 PM 84.5°F29.2°C 62.7°F17.1°C 48% 1.4 mph E2.3 kmh E 7.0 mph11.3 kmh 30.00 in1015.9 mb 0.00 in0.0 mm 0.00 in0.0 mm 0.00 in0.0 mm
06:38 PM 84.3°F29.1°C 62.6°F17.0°C 48% 2.0 mph E3.2 kmh E 6.0 mph9.7 kmh 30.00 in1015.9 mb 0.00 in0.0 mm 0.00 in0.0 mm 0.00 in0.0 mm
06:43 PM 83.9°F28.8°C 63.4°F17.4°C 50% 1.8 mph E2.9 kmh E 6.0 mph9.7 kmh 30.00 in1015.9 mb 0.00 in0.0 mm 0.00 in0.0 mm 0.00 in0.0 mm
06:48 PM 83.4°F28.6°C 62.9°F17.2°C 50% 1.7 mph E2.7 kmh E 5.0 mph8.0 kmh 30.01 in1016.3 mb 0.00 in0.0 mm 0.00 in0.0 mm 0.00 in0.0 mm
06:53 PM 83.1°F28.4°C 63.1°F17.3°C 51% 1.3 mph E2.1 kmh E 5.0 mph8.0 kmh 30.01 in1016.3 mb 0.00 in0.0 mm 0.00 in0.0 mm 0.00 in0.0 mm
06:58 PM 82.8°F28.2°C 64.1°F17.8°C 53% 1.3 mph ENE2.1 kmh ENE 4.0 mph6.4 kmh 30.01 in1016.3 mb 0.00 in0.0 mm 0.00 in0.0 mm 0.00 in0.0 mm
07:03 PM 82.5°F28.1°C 63.8°F17.7°C 53% 1.0 mph E1.6 kmh E 4.0 mph6.4 kmh 30.01 in1016.3 mb 0.00 in0.0 mm 0.00 in0.0 mm 0.00 in0.0 mm
07:08 PM 82.2°F27.9°C 64.1°F17.8°C 54% 1.5 mph E2.4 kmh E 3.0 mph4.8 kmh 30.01 in1016.3 mb 0.00 in0.0 mm 0.00 in0.0 mm 0.00 in0.0 mm
07:13 PM 81.7°F27.6°C 64.0°F17.8°C 55% 1.7 mph E2.7 kmh E 3.0 mph4.8 kmh 30.01 in1016.3 mb 0.00 in0.0 mm 0.00 in0.0 mm 0.00 in0.0 mm
07:18 PM 81.2°F27.3°C 64.2°F17.9°C 56% 1.6 mph E2.6 kmh E 3.0 mph4.8 kmh 30.01 in1016.3 mb 0.00 in0.0 mm 0.00 in0.0 mm 0.00 in0.0 mm
07:23 PM 81.0°F27.2°C 64.0°F17.8°C 56% 1.6 mph E2.6 kmh E 3.0 mph4.8 kmh 30.01 in1016.3 mb 0.00 in0.0 mm 0.00 in0.0 mm 0.00 in0.0 mm
07:27 PM 80.7°F27.1°C 63.8°F17.7°C 56% 1.4 mph E2.3 kmh E 3.0 mph4.8 kmh 30.01 in1016.3 mb 0.00 in0.0 mm 0.00 in0.0 mm 0.00 in0.0 mm
07:32 PM 80.3°F26.8°C 64.4°F18.0°C 58% 1.3 mph E2.1 kmh E 3.0 mph4.8 kmh 30.01 in1016.3 mb 0.00 in0.0 mm 0.00 in0.0 mm 0.00 in0.0 mm
07:37 PM 79.9°F26.6°C 63.5°F17.5°C 57% 1.6 mph E2.6 kmh E 3.0 mph4.8 kmh 30.01 in1016.3 mb 0.00 in0.0 mm 0.00 in0.0 mm 0.00 in0.0 mm
07:42 PM 79.7°F26.5°C 63.3°F17.4°C 57% 1.5 mph E2.4 kmh E 3.0 mph4.8 kmh 30.01 in1016.3 mb 0.00 in0.0 mm 0.00 in0.0 mm 0.00 in0.0 mm
07:47 PM 79.6°F26.4°C 63.2°F17.3°C 57% 1.2 mph E1.9 kmh E 2.0 mph3.2 kmh 30.01 in1016.3 mb 0.00 in0.0 mm 0.00 in0.0 mm 0.00 in0.0 mm
07:52 PM 79.6°F26.4°C 63.2°F17.3°C 57% 1.1 mph E1.8 kmh E 2.0 mph3.2 kmh 30.01 in1016.3 mb 0.00 in0.0 mm 0.00 in0.0 mm 0.00 in0.0 mm
07:57 PM 79.6°F26.4°C 62.7°F17.1°C 56% 1.6 mph E2.6 kmh E 2.0 mph3.2 kmh 30.02 in1016.6 mb 0.00 in0.0 mm 0.00 in0.0 mm 0.00 in0.0 mm
08:02 PM 79.5°F26.4°C 63.1°F17.3°C 57% Calm Calm 2.0 mph3.2 kmh 30.02 in1016.6 mb 0.00 in0.0 mm 0.00 in0.0 mm 0.00 in0.0 mm
08:07 PM 79.4°F26.3°C 62.8°F17.1°C 57% 1.1 mph E1.8 kmh E 2.0 mph3.2 kmh 30.02 in1016.6 mb 0.00 in0.0 mm 0.00 in0.0 mm 0.00 in0.0 mm
08:12 PM 79.4°F26.3°C 63.0°F17.2°C 57% 1.9 mph E3.1 kmh E 3.0 mph4.8 kmh 30.02 in1016.6 mb 0.00 in0.0 mm 0.00 in0.0 mm 0.00 in0.0 mm
08:17 PM 79.3°F26.3°C 63.2°F17.3°C 58% 1.0 mph E1.6 kmh E 3.0 mph4.8 kmh 30.02 in1016.6 mb 0.00 in0.0 mm 0.00 in0.0 mm 0.00 in0.0 mm
08:22 PM 79.1°F26.2°C 62.8°F17.1°C 57% 1.0 mph ESE1.6 kmh ESE 3.0 mph4.8 kmh 30.02 in1016.6 mb 0.00 in0.0 mm 0.00 in0.0 mm 0.00 in0.0 mm
08:27 PM 79.3°F26.3°C 63.0°F17.2°C 57% 1.4 mph E2.3 kmh E 3.0 mph4.8 kmh 30.02 in1016.6 mb 0.00 in0.0 mm 0.00 in0.0 mm 0.00 in0.0 mm
08:32 PM 79.1°F26.2°C 63.3°F17.4°C 58% 1.0 mph E1.6 kmh E 2.0 mph3.2 kmh 30.03 in1016.9 mb 0.00 in0.0 mm 0.00 in0.0 mm 0.00 in0.0 mm
08:37 PM 78.8°F26.0°C 63.5°F17.5°C 59% 1.5 mph E2.4 kmh E 2.0 mph3.2 kmh 30.03 in1016.9 mb 0.00 in0.0 mm 0.00 in0.0 mm 0.00 in0.0 mm
08:42 PM 78.7°F25.9°C 62.9°F17.2°C 58% 1.0 mph E1.6 kmh E 2.0 mph3.2 kmh 30.03 in1016.9 mb 0.00 in0.0 mm 0.00 in0.0 mm 0.00 in0.0 mm
08:47 PM 78.6°F25.9°C 62.6°F17.0°C 58% 1.0 mph E1.6 kmh E 2.0 mph3.2 kmh 30.03 in1016.9 mb 0.00 in0.0 mm 0.00 in0.0 mm 0.00 in0.0 mm
08:52 PM 78.3°F25.7°C 63.0°F17.2°C 59% 1.2 mph ENE1.9 kmh ENE 2.0 mph3.2 kmh 30.03 in1016.9 mb 0.00 in0.0 mm 0.00 in0.0 mm 0.00 in0.0 mm
08:57 PM 78.0°F25.6°C 63.2°F17.3°C 60% 1.2 mph ENE1.9 kmh ENE 2.0 mph3.2 kmh 30.03 in1016.9 mb 0.00 in0.0 mm 0.00 in0.0 mm 0.00 in0.0 mm
09:02 PM 77.9°F25.5°C 63.1°F17.3°C 60% 1.0 mph ENE1.6 kmh ENE 2.0 mph3.2 kmh 30.03 in1016.9 mb 0.00 in0.0 mm 0.00 in0.0 mm 0.00 in0.0 mm
09:07 PM 77.6°F25.3°C 63.3°F17.4°C 61% 1.0 mph ENE1.6 kmh ENE 2.0 mph3.2 kmh 30.03 in1016.9 mb 0.00 in0.0 mm 0.00 in0.0 mm 0.00 in0.0 mm
09:12 PM 77.5°F25.3°C 63.2°F17.3°C 61% 1.0 mph ENE1.6 kmh ENE 2.0 mph3.2 kmh 30.03 in1016.9 mb 0.00 in0.0 mm 0.00 in0.0 mm 0.00 in0.0 mm
09:17 PM 77.3°F25.2°C 63.5°F17.5°C 62% 1.0 mph ENE1.6 kmh ENE 2.0 mph3.2 kmh 30.03 in1016.9 mb 0.00 in0.0 mm 0.00 in0.0 mm 0.00 in0.0 mm
09:22 PM 77.1°F25.1°C 63.8°F17.7°C 63% 1.5 mph ENE2.4 kmh ENE 2.0 mph3.2 kmh 30.03 in1016.9 mb 0.00 in0.0 mm 0.00 in0.0 mm 0.00 in0.0 mm
09:27 PM 76.9°F24.9°C 63.3°F17.4°C 63% 1.0 mph E1.6 kmh E 2.0 mph3.2 kmh 30.04 in1017.3 mb 0.00 in0.0 mm 0.00 in0.0 mm 0.00 in0.0 mm
09:32 PM 76.4°F24.7°C 63.8°F17.7°C 65% 1.4 mph E2.3 kmh E 3.0 mph4.8 kmh 30.04 in1017.3 mb 0.00 in0.0 mm 0.00 in0.0 mm 0.00 in0.0 mm
09:37 PM 76.2°F24.6°C 63.6°F17.6°C 65% 2.1 mph E3.4 kmh E 4.0 mph6.4 kmh 30.04 in1017.3 mb 0.00 in0.0 mm 0.00 in0.0 mm 0.00 in0.0 mm
09:42 PM 76.2°F24.6°C 63.8°F17.7°C 65% 1.7 mph E2.7 kmh E 4.0 mph6.4 kmh 30.04 in1017.3 mb 0.00 in0.0 mm 0.00 in0.0 mm 0.00 in0.0 mm
09:47 PM 76.0°F24.4°C 63.6°F17.6°C 65% 1.5 mph E2.4 kmh E 4.0 mph6.4 kmh 30.04 in1017.3 mb 0.00 in0.0 mm 0.00 in0.0 mm 0.00 in0.0 mm
09:52 PM 75.7°F24.3°C 63.8°F17.7°C 66% 2.3 mph E3.7 kmh E 4.0 mph6.4 kmh 30.04 in1017.3 mb 0.00 in0.0 mm 0.00 in0.0 mm 0.00 in0.0 mm
09:57 PM 75.4°F24.1°C 63.7°F17.6°C 67% 1.2 mph E1.9 kmh E 4.0 mph6.4 kmh 30.05 in1017.6 mb 0.00 in0.0 mm 0.00 in0.0 mm 0.00 in0.0 mm
10:02 PM 75.1°F23.9°C 64.0°F17.8°C 68% 1.7 mph E2.7 kmh E 4.0 mph6.4 kmh 30.04 in1017.3 mb 0.00 in0.0 mm 0.00 in0.0 mm 0.00 in0.0 mm
10:07 PM 75.0°F23.9°C 63.9°F17.7°C 68% 1.5 mph ENE2.4 kmh ENE 4.0 mph6.4 kmh 30.05 in1017.6 mb 0.00 in0.0 mm 0.00 in0.0 mm 0.00 in0.0 mm
10:12 PM 74.9°F23.8°C 64.2°F17.9°C 69% 1.1 mph E1.8 kmh E 4.0 mph6.4 kmh 30.05 in1017.6 mb 0.00 in0.0 mm 0.00 in0.0 mm 0.00 in0.0 mm
10:17 PM 74.8°F23.8°C 64.2°F17.9°C 69% 2.1 mph E3.4 kmh E 4.0 mph6.4 kmh 30.05 in1017.6 mb 0.00 in0.0 mm 0.00 in0.0 mm 0.00 in0.0 mm
10:22 PM 74.7°F23.7°C 64.1°F17.8°C 69% 1.6 mph E2.6 kmh E 4.0 mph6.4 kmh 30.05 in1017.6 mb 0.00 in0.0 mm 0.00 in0.0 mm 0.00 in0.0 mm
10:27 PM 74.5°F23.6°C 64.3°F17.9°C 70% 1.8 mph E2.9 kmh E 5.0 mph8.0 kmh 30.05 in1017.6 mb 0.00 in0.0 mm 0.00 in0.0 mm 0.00 in0.0 mm
10:32 PM 74.2°F23.4°C 64.0°F17.8°C 70% 1.9 mph E3.1 kmh E 5.0 mph8.0 kmh 30.05 in1017.6 mb 0.00 in0.0 mm 0.00 in0.0 mm 0.00 in0.0 mm
10:37 PM 74.2°F23.4°C 64.0°F17.8°C 70% 1.5 mph E2.4 kmh E 5.0 mph8.0 kmh 30.05 in1017.6 mb 0.00 in0.0 mm 0.00 in0.0 mm 0.00 in0.0 mm
10:42 PM 74.1°F23.4°C 63.9°F17.7°C 70% 1.5 mph E2.4 kmh E 5.0 mph8.0 kmh 30.05 in1017.6 mb 0.00 in0.0 mm 0.00 in0.0 mm 0.00 in0.0 mm
10:47 PM 73.9°F23.3°C 63.7°F17.6°C 70% 1.7 mph E2.7 kmh E 4.0 mph6.4 kmh 30.05 in1017.6 mb 0.00 in0.0 mm 0.00 in0.0 mm 0.00 in0.0 mm
10:52 PM 73.8°F23.2°C 63.6°F17.6°C 70% 1.3 mph E2.1 kmh E 4.0 mph6.4 kmh 30.05 in1017.6 mb 0.00 in0.0 mm 0.00 in0.0 mm 0.00 in0.0 mm
10:57 PM 73.7°F23.2°C 62.9°F17.2°C 69% 1.2 mph ESE1.9 kmh ESE 4.0 mph6.4 kmh 30.05 in1017.6 mb 0.00 in0.0 mm 0.00 in0.0 mm 0.00 in0.0 mm
11:02 PM 73.6°F23.1°C 63.4°F17.4°C 70% 1.1 mph E1.8 kmh E 4.0 mph6.4 kmh 30.05 in1017.6 mb 0.00 in0.0 mm 0.00 in0.0 mm 0.00 in0.0 mm
11:07 PM 73.5°F23.1°C 63.3°F17.4°C 70% 1.4 mph E2.3 kmh E 4.0 mph6.4 kmh 30.05 in1017.6 mb 0.00 in0.0 mm 0.00 in0.0 mm 0.00 in0.0 mm
11:12 PM 73.5°F23.1°C 62.7°F17.1°C 69% 1.3 mph E2.1 kmh E 4.0 mph6.4 kmh 30.05 in1017.6 mb 0.00 in0.0 mm 0.00 in0.0 mm 0.00 in0.0 mm
11:17 PM 73.5°F23.1°C 62.9°F17.2°C 69% 1.7 mph ESE2.7 kmh ESE 4.0 mph6.4 kmh 30.05 in1017.6 mb 0.00 in0.0 mm 0.00 in0.0 mm 0.00 in0.0 mm
11:22 PM 73.5°F23.1°C 62.9°F17.2°C 69% 1.5 mph E2.4 kmh E 4.0 mph6.4 kmh 30.05 in1017.6 mb 0.00 in0.0 mm 0.00 in0.0 mm 0.00 in0.0 mm
11:27 PM 73.4°F23.0°C 62.6°F17.0°C 69% 1.3 mph E2.1 kmh E 4.0 mph6.4 kmh 30.05 in1017.6 mb 0.00 in0.0 mm 0.00 in0.0 mm 0.00 in0.0 mm
11:32 PM 73.2°F22.9°C 62.6°F17.0°C 69% 1.8 mph E2.9 kmh E 4.0 mph6.4 kmh 30.05 in1017.6 mb 0.00 in0.0 mm 0.00 in0.0 mm 0.00 in0.0 mm
11:37 PM 73.1°F22.8°C 62.9°F17.2°C 70% 1.2 mph E1.9 kmh E 4.0 mph6.4 kmh 30.05 in1017.6 mb 0.00 in0.0 mm 0.00 in0.0 mm 0.00 in0.0 mm
11:42 PM 72.9°F22.7°C 62.7°F17.1°C 70% 1.0 mph E1.6 kmh E 4.0 mph6.4 kmh 30.06 in1017.9 mb 0.00 in0.0 mm 0.00 in0.0 mm 0.00 in0.0 mm
11:47 PM 72.9°F22.7°C 62.7°F17.1°C 70% 1.5 mph E2.4 kmh E 4.0 mph6.4 kmh 30.06 in1017.9 mb 0.00 in0.0 mm 0.00 in0.0 mm 0.00 in0.0 mm
11:52 PM 72.9°F22.7°C 62.7°F17.1°C 70% 1.7 mph E2.7 kmh E 3.0 mph4.8 kmh 30.06 in1017.9 mb 0.00 in0.0 mm 0.00 in0.0 mm 0.00 in0.0 mm
11:57 PM 72.9°F22.7°C 62.7°F17.1°C 70% 1.5 mph E2.4 kmh E 4.0 mph6.4 kmh 30.06 in1017.9 mb 0.00 in0.0 mm 0.00 in0.0 mm 0.00 in0.0 mm